sensor_id;sensor_type;location;lat;lon;timestamp;pressure;altitude;pressure_sealevel;temperature;humidity
55733;BME280;41637;52.364;9.910;2023-04-01T00:01:46;98773.92;;;9.79;99.83
55733;BME280;41637;52.364;9.910;2023-04-01T00:04:13;98773.88;;;9.79;99.97
55733;BME280;41637;52.364;9.910;2023-04-01T00:06:40;98779.23;;;9.81;99.97
55733;BME280;41637;52.364;9.910;2023-04-01T00:09:07;98776.02;;;9.83;99.90
55733;BME280;41637;52.364;9.910;2023-04-01T00:11:33;98781.14;;;9.84;99.79
55733;BME280;41637;52.364;9.910;2023-04-01T00:14:00;98777.76;;;9.85;99.74
55733;BME280;41637;52.364;9.910;2023-04-01T00:16:27;98776.27;;;9.85;99.71
55733;BME280;41637;52.364;9.910;2023-04-01T00:18:54;98776.90;;;9.84;99.69
55733;BME280;41637;52.364;9.910;2023-04-01T00:21:21;98774.27;;;9.83;99.55
55733;BME280;41637;52.364;9.910;2023-04-01T00:23:50;98773.17;;;9.82;99.52
55733;BME280;41637;52.364;9.910;2023-04-01T00:26:18;98773.23;;;9.81;99.47
55733;BME280;41637;52.364;9.910;2023-04-01T00:28:48;98774.07;;;9.80;99.47
55733;BME280;41637;52.364;9.910;2023-04-01T00:31:15;98774.37;;;9.79;99.13
55733;BME280;41637;52.364;9.910;2023-04-01T00:33:41;98771.73;;;9.78;98.98
55733;BME280;41637;52.364;9.910;2023-04-01T00:36:14;98774.06;;;9.76;98.83
55733;BME280;41637;52.364;9.910;2023-04-01T00:38:42;98771.14;;;9.76;98.76
55733;BME280;41637;52.364;9.910;2023-04-01T00:41:10;98773.23;;;9.74;98.75
55733;BME280;41637;52.364;9.910;2023-04-01T00:43:42;98771.95;;;9.73;98.70
55733;BME280;41637;52.364;9.910;2023-04-01T00:46:09;98772.77;;;9.72;98.94
55733;BME280;41637;52.364;9.910;2023-04-01T00:48:38;98773.04;;;9.73;98.85
55733;BME280;41637;52.364;9.910;2023-04-01T00:51:14;98772.65;;;9.72;99.03
55733;BME280;41637;52.364;9.910;2023-04-01T00:53:45;98771.77;;;9.69;99.28
55733;BME280;41637;52.364;9.910;2023-04-01T00:56:30;98777.45;;;9.66;99.29
55733;BME280;41637;52.364;9.910;2023-04-01T00:59:06;98778.80;;;9.66;99.55
55733;BME280;41637;52.364;9.910;2023-04-01T01:01:35;98777.52;;;9.64;99.88
55733;BME280;41637;52.364;9.910;2023-04-01T01:04:03;98781.84;;;9.63;99.83
55733;BME280;41637;52.364;9.910;2023-04-01T01:06:54;98778.67;;;9.62;99.95
55733;BME280;41637;52.364;9.910;2023-04-01T01:12:16;98779.18;;;9.59;100.00
55733;BME280;41637;52.364;9.910;2023-04-01T01:17:51;98774.73;;;9.56;100.00
55733;BME280;41637;52.364;9.910;2023-04-01T01:25:46;98774.20;;;9.51;100.00
55733;BME280;41637;52.364;9.910;2023-04-01T01:31:17;98772.63;;;9.47;100.00
55733;BME280;41637;52.364;9.910;2023-04-01T01:34:14;98777.25;;;9.44;100.00
55733;BME280;41637;52.364;9.910;2023-04-01T01:36:38;98781.30;;;9.43;100.00
55733;BME280;41637;52.364;9.910;2023-04-01T01:39:09;98778.25;;;9.42;100.00
55733;BME280;41637;52.364;9.910;2023-04-01T01:41:41;98778.17;;;9.42;100.00
55733;BME280;41637;52.364;9.910;2023-04-01T01:44:11;98780.31;;;9.40;100.00
55733;BME280;41637;52.364;9.910;2023-04-01T01:46:41;98773.31;;;9.38;100.00
55733;BME280;41637;52.364;9.910;2023-04-01T01:49:10;98774.57;;;9.38;100.00
55733;BME280;41637;52.364;9.910;2023-04-01T01:51:41;98777.34;;;9.37;100.00
55733;BME280;41637;52.364;9.910;2023-04-01T01:54:14;98780.45;;;9.36;100.00
55733;BME280;41637;52.364;9.910;2023-04-01T01:56:43;98780.81;;;9.36;100.00
55733;BME280;41637;52.364;9.910;2023-04-01T01:59:12;98781.10;;;9.35;100.00
55733;BME280;41637;52.364;9.910;2023-04-01T02:01:43;98779.88;;;9.35;100.00
55733;BME280;41637;52.364;9.910;2023-04-01T02:04:13;98781.69;;;9.34;100.00
55733;BME280;41637;52.364;9.910;2023-04-01T02:06:50;98780.30;;;9.33;100.00
55733;BME280;41637;52.364;9.910;2023-04-01T02:09:19;98782.73;;;9.33;100.00
55733;BME280;41637;52.364;9.910;2023-04-01T02:11:53;98783.59;;;9.34;100.00
55733;BME280;41637;52.364;9.910;2023-04-01T02:14:25;98782.00;;;9.34;100.00
55733;BME280;41637;52.364;9.910;2023-04-01T02:17:07;98782.37;;;9.34;100.00
55733;BME280;41637;52.364;9.910;2023-04-01T02:20:01;98781.06;;;9.34;100.00
55733;BME280;41637;52.364;9.910;2023-04-01T02:22:29;98783.75;;;9.34;100.00
55733;BME280;41637;52.364;9.910;2023-04-01T02:25:01;98785.86;;;9.34;100.00
55733;BME280;41637;52.364;9.910;2023-04-01T02:27:30;98785.02;;;9.34;100.00
55733;BME280;41637;52.364;9.910;2023-04-01T02:29:57;98785.66;;;9.34;100.00
55733;BME280;41637;52.364;9.910;2023-04-01T02:32:25;98789.98;;;9.33;100.00
55733;BME280;41637;52.364;9.910;2023-04-01T02:34:54;98787.23;;;9.32;100.00
55733;BME280;41637;52.364;9.910;2023-04-01T02:37:21;98793.38;;;9.30;100.00
55733;BME280;41637;52.364;9.910;2023-04-01T02:39:47;98793.51;;;9.30;100.00
55733;BME280;41637;52.364;9.910;2023-04-01T02:42:14;98788.55;;;9.30;100.00
55733;BME280;41637;52.364;9.910;2023-04-01T02:44:41;98789.85;;;9.29;100.00
55733;BME280;41637;52.364;9.910;2023-04-01T02:47:08;98793.39;;;9.29;100.00
55733;BME280;41637;52.364;9.910;2023-04-01T02:49:34;98793.52;;;9.30;100.00
55733;BME280;41637;52.364;9.910;2023-04-01T02:52:01;98795.09;;;9.31;100.00
55733;BME280;41637;52.364;9.910;2023-04-01T02:54:28;98797.89;;;9.33;100.00
55733;BME280;41637;52.364;9.910;2023-04-01T02:56:54;98798.83;;;9.32;100.00
55733;BME280;41637;52.364;9.910;2023-04-01T02:59:21;98794.64;;;9.33;100.00
55733;BME280;41637;52.364;9.910;2023-04-01T03:01:47;98797.45;;;9.33;100.00
55733;BME280;41637;52.364;9.910;2023-04-01T03:04:14;98801.27;;;9.32;100.00
55733;BME280;41637;52.364;9.910;2023-04-01T03:06:41;98800.43;;;9.31;100.00
55733;BME280;41637;52.364;9.910;2023-04-01T03:09:08;98800.27;;;9.29;100.00
55733;BME280;41637;52.364;9.910;2023-04-01T03:11:35;98800.67;;;9.29;100.00
55733;BME280;41637;52.364;9.910;2023-04-01T03:14:02;98800.52;;;9.29;100.00
55733;BME280;41637;52.364;9.910;2023-04-01T03:16:28;98800.27;;;9.29;100.00
55733;BME280;41637;52.364;9.910;2023-04-01T03:18:55;98795.27;;;9.30;100.00
55733;BME280;41637;52.364;9.910;2023-04-01T03:21:25;98796.64;;;9.30;100.00
55733;BME280;41637;52.364;9.910;2023-04-01T03:23:52;98798.20;;;9.29;100.00
55733;BME280;41637;52.364;9.910;2023-04-01T03:26:18;98798.41;;;9.26;100.00
55733;BME280;41637;52.364;9.910;2023-04-01T03:28:45;98800.17;;;9.24;100.00
55733;BME280;41637;52.364;9.910;2023-04-01T03:31:12;98800.36;;;9.21;100.00
55733;BME280;41637;52.364;9.910;2023-04-01T03:33:39;98800.34;;;9.19;100.00
55733;BME280;41637;52.364;9.910;2023-04-01T03:36:06;98800.64;;;9.18;100.00
55733;BME280;41637;52.364;9.910;2023-04-01T03:38:34;98799.33;;;9.18;100.00
55733;BME280;41637;52.364;9.910;2023-04-01T03:41:01;98804.30;;;9.18;100.00
55733;BME280;41637;52.364;9.910;2023-04-01T03:43:29;98805.06;;;9.17;100.00
55733;BME280;41637;52.364;9.910;2023-04-01T03:45:55;98804.50;;;9.17;100.00
55733;BME280;41637;52.364;9.910;2023-04-01T03:48:25;98806.46;;;9.15;100.00
55733;BME280;41637;52.364;9.910;2023-04-01T03:50:52;98807.69;;;9.14;100.00
55733;BME280;41637;52.364;9.910;2023-04-01T03:53:19;98807.86;;;9.11;100.00
55733;BME280;41637;52.364;9.910;2023-04-01T03:55:46;98807.30;;;9.10;100.00
55733;BME280;41637;52.364;9.910;2023-04-01T03:58:13;98808.89;;;9.10;100.00
55733;BME280;41637;52.364;9.910;2023-04-01T04:00:40;98807.67;;;9.09;100.00
55733;BME280;41637;52.364;9.910;2023-04-01T04:03:07;98812.08;;;9.08;100.00
55733;BME280;41637;52.364;9.910;2023-04-01T04:05:34;98810.02;;;9.06;100.00
55733;BME280;41637;52.364;9.910;2023-04-01T04:08:01;98810.59;;;9.05;100.00
55733;BME280;41637;52.364;9.910;2023-04-01T04:10:28;98811.61;;;9.04;100.00
55733;BME280;41637;52.364;9.910;2023-04-01T04:12:55;98814.63;;;9.02;100.00
55733;BME280;41637;52.364;9.910;2023-04-01T04:15:22;98817.64;;;9.01;100.00
55733;BME280;41637;52.364;9.910;2023-04-01T04:17:49;98813.77;;;9.01;100.00
55733;BME280;41637;52.364;9.910;2023-04-01T04:20:16;98817.80;;;9.01;100.00
55733;BME280;41637;52.364;9.910;2023-04-01T04:22:43;98817.64;;;9.01;100.00
55733;BME280;41637;52.364;9.910;2023-04-01T04:25:13;98818.08;;;9.01;100.00
55733;BME280;41637;52.364;9.910;2023-04-01T04:27:40;98815.48;;;9.02;100.00
55733;BME280;41637;52.364;9.910;2023-04-01T04:30:07;98820.97;;;9.04;100.00
55733;BME280;41637;52.364;9.910;2023-04-01T04:32:34;98818.20;;;9.04;100.00
55733;BME280;41637;52.364;9.910;2023-04-01T04:35:01;98818.15;;;9.06;100.00
55733;BME280;41637;52.364;9.910;2023-04-01T04:37:28;98821.86;;;9.07;100.00
55733;BME280;41637;52.364;9.910;2023-04-01T04:39:55;98823.19;;;9.08;100.00
55733;BME280;41637;52.364;9.910;2023-04-01T04:42:21;98824.52;;;9.08;100.00
55733;BME280;41637;52.364;9.910;2023-04-01T04:44:48;98828.22;;;9.10;100.00
55733;BME280;41637;52.364;9.910;2023-04-01T04:47:15;98825.77;;;9.12;100.00
55733;BME280;41637;52.364;9.910;2023-04-01T04:49:41;98827.80;;;9.13;100.00
55733;BME280;41637;52.364;9.910;2023-04-01T04:52:08;98826.70;;;9.13;100.00
55733;BME280;41637;52.364;9.910;2023-04-01T04:54:35;98829.47;;;9.12;100.00
55733;BME280;41637;52.364;9.910;2023-04-01T04:57:01;98833.59;;;9.12;100.00
55733;BME280;41637;52.364;9.910;2023-04-01T04:59:28;98835.79;;;9.11;100.00
55733;BME280;41637;52.364;9.910;2023-04-01T05:01:55;98836.48;;;9.10;100.00
55733;BME280;41637;52.364;9.910;2023-04-01T05:04:22;98841.13;;;9.08;100.00
55733;BME280;41637;52.364;9.910;2023-04-01T05:06:49;98838.38;;;9.05;100.00
55733;BME280;41637;52.364;9.910;2023-04-01T05:09:15;98841.92;;;9.04;100.00
55733;BME280;41637;52.364;9.910;2023-04-01T05:11:42;98843.48;;;9.03;100.00
55733;BME280;41637;52.364;9.910;2023-04-01T05:14:16;98845.43;;;9.01;100.00
55733;BME280;41637;52.364;9.910;2023-04-01T05:16:42;98850.15;;;9.00;100.00
55733;BME280;41637;52.364;9.910;2023-04-01T05:19:09;98844.81;;;9.01;100.00
55733;BME280;41637;52.364;9.910;2023-04-01T05:21:36;98848.32;;;9.01;100.00
55733;BME280;41637;52.364;9.910;2023-04-01T05:24:03;98850.03;;;9.01;100.00
55733;BME280;41637;52.364;9.910;2023-04-01T05:26:33;98849.46;;;9.02;100.00
55733;BME280;41637;52.364;9.910;2023-04-01T05:29:01;98849.05;;;9.02;100.00
55733;BME280;41637;52.364;9.910;2023-04-01T05:31:27;98850.76;;;9.02;100.00
55733;BME280;41637;52.364;9.910;2023-04-01T05:33:55;98854.63;;;9.02;100.00
55733;BME280;41637;52.364;9.910;2023-04-01T05:36:22;98855.30;;;9.04;100.00
55733;BME280;41637;52.364;9.910;2023-04-01T05:38:49;98858.67;;;9.06;100.00
55733;BME280;41637;52.364;9.910;2023-04-01T05:41:16;98856.05;;;9.08;100.00
55733;BME280;41637;52.364;9.910;2023-04-01T05:43:43;98856.95;;;9.11;100.00
55733;BME280;41637;52.364;9.910;2023-04-01T05:46:10;98857.41;;;9.14;100.00
55733;BME280;41637;52.364;9.910;2023-04-01T05:48:36;98857.98;;;9.16;100.00
55733;BME280;41637;52.364;9.910;2023-04-01T05:51:03;98861.23;;;9.18;100.00
55733;BME280;41637;52.364;9.910;2023-04-01T05:53:31;98862.52;;;9.21;100.00
55733;BME280;41637;52.364;9.910;2023-04-01T05:56:02;98866.20;;;9.23;100.00
55733;BME280;41637;52.364;9.910;2023-04-01T05:58:32;98863.01;;;9.27;100.00
55733;BME280;41637;52.364;9.910;2023-04-01T06:01:17;98866.69;;;9.32;100.00
55733;BME280;41637;52.364;9.910;2023-04-01T06:03:45;98868.09;;;9.36;100.00
55733;BME280;41637;52.364;9.910;2023-04-01T06:06:20;98866.44;;;9.41;100.00
55733;BME280;41637;52.364;9.910;2023-04-01T06:08:49;98869.86;;;9.47;100.00
55733;BME280;41637;52.364;9.910;2023-04-01T06:14:09;98873.58;;;9.59;100.00
55733;BME280;41637;52.364;9.910;2023-04-01T06:16:53;98871.18;;;9.65;100.00
55733;BME280;41637;52.364;9.910;2023-04-01T06:19:40;98873.54;;;9.72;100.00
55733;BME280;41637;52.364;9.910;2023-04-01T06:22:20;98877.10;;;9.81;100.00
55733;BME280;41637;52.364;9.910;2023-04-01T06:36:15;98883.77;;;10.27;100.00
55733;BME280;41637;52.364;9.910;2023-04-01T06:45:03;98889.98;;;10.54;100.00
55733;BME280;41637;52.364;9.910;2023-04-01T06:51:59;98892.38;;;10.76;99.83
55733;BME280;41637;52.364;9.910;2023-04-01T06:54:44;98893.55;;;10.83;99.32
55733;BME280;41637;52.364;9.910;2023-04-01T06:57:38;98892.61;;;10.91;99.10
55733;BME280;41637;52.364;9.910;2023-04-01T07:00:27;98900.19;;;10.96;98.21
55733;BME280;41637;52.364;9.910;2023-04-01T07:03:13;98900.80;;;11.03;98.11
55733;BME280;41637;52.364;9.910;2023-04-01T07:05:42;98900.84;;;11.10;97.90
55733;BME280;41637;52.364;9.910;2023-04-01T07:08:13;98903.66;;;11.15;97.47
55733;BME280;41637;52.364;9.910;2023-04-01T07:13:41;98909.83;;;11.28;96.51
55733;BME280;41637;52.364;9.910;2023-04-01T07:16:15;98910.16;;;11.34;96.62
55733;BME280;41637;52.364;9.910;2023-04-01T07:18:51;98909.77;;;11.41;96.51
55733;BME280;41637;52.364;9.910;2023-04-01T07:21:38;98913.77;;;11.49;95.67
55733;BME280;41637;52.364;9.910;2023-04-01T07:24:17;98919.00;;;11.57;95.44
55733;BME280;41637;52.364;9.910;2023-04-01T07:26:49;98924.39;;;11.68;95.48
55733;BME280;41637;52.364;9.910;2023-04-01T07:29:18;98923.36;;;11.71;93.65
55733;BME280;41637;52.364;9.910;2023-04-01T07:34:28;98925.77;;;11.84;93.96
55733;BME280;41637;52.364;9.910;2023-04-01T07:37:06;98927.48;;;11.90;93.70
55733;BME280;41637;52.364;9.910;2023-04-01T07:40:07;98933.19;;;11.97;93.95
55733;BME280;41637;52.364;9.910;2023-04-01T07:48:58;98942.66;;;12.01;91.12
55733;BME280;41637;52.364;9.910;2023-04-01T07:54:09;98949.33;;;12.11;90.79
55733;BME280;41637;52.364;9.910;2023-04-01T07:56:55;98952.86;;;12.13;90.08
55733;BME280;41637;52.364;9.910;2023-04-01T08:18:25;98972.04;;;12.70;88.06
55733;BME280;41637;52.364;9.910;2023-04-01T08:21:01;98971.10;;;12.70;87.41
55733;BME280;41637;52.364;9.910;2023-04-01T08:23:41;98972.36;;;12.74;87.15
55733;BME280;41637;52.364;9.910;2023-04-01T08:26:14;98972.66;;;12.83;86.90
55733;BME280;41637;52.364;9.910;2023-04-01T08:28:52;98977.55;;;12.87;86.28
55733;BME280;41637;52.364;9.910;2023-04-01T08:31:43;98980.31;;;12.91;86.19
55733;BME280;41637;52.364;9.910;2023-04-01T08:34:24;98982.20;;;12.95;85.80
55733;BME280;41637;52.364;9.910;2023-04-01T08:37:01;98984.13;;;12.99;85.59
55733;BME280;41637;52.364;9.910;2023-04-01T08:39:34;98984.55;;;13.05;85.47
55733;BME280;41637;52.364;9.910;2023-04-01T08:42:37;98986.90;;;13.18;85.58
55733;BME280;41637;52.364;9.910;2023-04-01T08:51:31;98987.73;;;13.48;82.13
55733;BME280;41637;52.364;9.910;2023-04-01T08:54:15;98986.70;;;13.65;82.66
55733;BME280;41637;52.364;9.910;2023-04-01T08:57:04;98992.08;;;13.80;81.44
55733;BME280;41637;52.364;9.910;2023-04-01T08:59:50;98994.64;;;13.93;80.91
55733;BME280;41637;52.364;9.910;2023-04-01T09:02:39;98995.55;;;14.07;79.74
55733;BME280;41637;52.364;9.910;2023-04-01T09:14:09;98998.15;;;14.55;77.27
55733;BME280;41637;52.364;9.910;2023-04-01T09:22:13;99004.20;;;14.35;75.61
55733;BME280;41637;52.364;9.910;2023-04-01T09:38:59;99021.73;;;14.64;74.65
55733;BME280;41637;52.364;9.910;2023-04-01T09:41:35;99020.16;;;14.66;74.07
55733;BME280;41637;52.364;9.910;2023-04-01T09:44:17;99022.15;;;14.74;73.88
55733;BME280;41637;52.364;9.910;2023-04-01T09:52:32;99029.82;;;14.97;72.21
55733;BME280;41637;52.364;9.910;2023-04-01T09:55:30;99033.91;;;15.07;70.92
55733;BME280;41637;52.364;9.910;2023-04-01T09:58:12;99032.44;;;15.20;71.32
55733;BME280;41637;52.364;9.910;2023-04-01T10:06:44;99040.13;;;15.20;69.47
55733;BME280;41637;52.364;9.910;2023-04-01T10:12:54;99053.36;;;14.63;70.33
55733;BME280;41637;52.364;9.910;2023-04-01T10:15:39;99051.48;;;14.42;71.36
55733;BME280;41637;52.364;9.910;2023-04-01T10:26:18;99059.57;;;13.55;74.42
55733;BME280;41637;52.364;9.910;2023-04-01T10:38:09;99061.73;;;13.01;79.92
55733;BME280;41637;52.364;9.910;2023-04-01T10:55:37;99066.40;;;13.50;79.12
55733;BME280;41637;52.364;9.910;2023-04-01T10:58:38;99069.98;;;13.64;79.76
55733;BME280;41637;52.364;9.910;2023-04-01T11:02:00;99072.04;;;13.78;79.23
55733;BME280;41637;52.364;9.910;2023-04-01T11:13:58;99083.02;;;13.95;77.39
55733;BME280;41637;52.364;9.910;2023-04-01T11:17:03;99088.48;;;13.88;77.72
55733;BME280;41637;52.364;9.910;2023-04-01T11:22:46;99093.95;;;13.58;75.64
55733;BME280;41637;52.364;9.910;2023-04-01T11:25:20;99099.66;;;13.48;76.31
55733;BME280;41637;52.364;9.910;2023-04-01T11:28:09;99099.14;;;13.42;77.65
55733;BME280;41637;52.364;9.910;2023-04-01T11:33:23;99104.83;;;13.26;78.88
55733;BME280;41637;52.364;9.910;2023-04-01T11:36:20;99111.79;;;13.16;79.87
55733;BME280;41637;52.364;9.910;2023-04-01T11:41:49;99111.98;;;13.01;82.93
55733;BME280;41637;52.364;9.910;2023-04-01T11:44:21;99112.31;;;12.96;83.80
55733;BME280;41637;52.364;9.910;2023-04-01T11:50:15;99121.67;;;12.93;85.27
55733;BME280;41637;52.364;9.910;2023-04-01T11:53:02;99124.95;;;13.03;85.53
55733;BME280;41637;52.364;9.910;2023-04-01T11:55:53;99122.61;;;13.21;85.65
55733;BME280;41637;52.364;9.910;2023-04-01T12:01:17;99128.01;;;13.69;84.36
55733;BME280;41637;52.364;9.910;2023-04-01T12:09:08;99135.00;;;14.38;80.94
55733;BME280;41637;52.364;9.910;2023-04-01T12:14:26;99141.24;;;14.84;80.05
55733;BME280;41637;52.364;9.910;2023-04-01T12:19:51;99150.49;;;15.17;77.06
55733;BME280;41637;52.364;9.910;2023-04-01T12:36:13;99163.09;;;15.43;74.02
55733;BME280;41637;52.364;9.910;2023-04-01T13:00:58;99187.98;;;15.33;73.39
55733;BME280;41637;52.364;9.910;2023-04-01T13:14:33;99204.31;;;15.34;73.14
55733;BME280;41637;52.364;9.910;2023-04-01T13:17:53;99207.80;;;15.25;72.76
55733;BME280;41637;52.364;9.910;2023-04-01T13:20:30;99211.19;;;15.17;73.57
55733;BME280;41637;52.364;9.910;2023-04-01T13:26:29;99217.64;;;15.19;75.18
55733;BME280;41637;52.364;9.910;2023-04-01T13:29:13;99219.21;;;15.17;75.24
55733;BME280;41637;52.364;9.910;2023-04-01T13:34:52;99226.81;;;15.31;75.89
55733;BME280;41637;52.364;9.910;2023-04-01T13:43:49;99230.11;;;15.18;73.19
55733;BME280;41637;52.364;9.910;2023-04-01T13:46:41;99239.98;;;15.10;73.73
55733;BME280;41637;52.364;9.910;2023-04-01T13:58:07;99260.94;;;13.36;79.99
55733;BME280;41637;52.364;9.910;2023-04-01T14:00:54;99261.19;;;12.94;82.01
55733;BME280;41637;52.364;9.910;2023-04-01T14:03:32;99268.56;;;12.62;83.48
55733;BME280;41637;52.364;9.910;2023-04-01T14:06:23;99271.19;;;12.35;84.82
55733;BME280;41637;52.364;9.910;2023-04-01T14:09:08;99273.60;;;12.09;86.33
55733;BME280;41637;52.364;9.910;2023-04-01T14:12:01;99286.34;;;11.85;86.81
55733;BME280;41637;52.364;9.910;2023-04-01T14:43:02;99329.75;;;10.80;92.92
55733;BME280;41637;52.364;9.910;2023-04-01T14:48:15;99347.69;;;10.60;93.08
55733;BME280;41637;52.364;9.910;2023-04-01T14:50:49;99351.59;;;10.48;93.19
55733;BME280;41637;52.364;9.910;2023-04-01T14:53:34;99352.98;;;10.39;93.50
55733;BME280;41637;52.364;9.910;2023-04-01T14:56:05;99358.50;;;10.29;93.83
55733;BME280;41637;52.364;9.910;2023-04-01T14:58:47;99363.45;;;10.21;94.48
55733;BME280;41637;52.364;9.910;2023-04-01T15:01:32;99367.49;;;10.08;94.68
55733;BME280;41637;52.364;9.910;2023-04-01T15:12:37;99385.36;;;9.78;95.36
55733;BME280;41637;52.364;9.910;2023-04-01T15:15:44;99392.34;;;9.72;95.42
55733;BME280;41637;52.364;9.910;2023-04-01T15:21:17;99406.54;;;9.65;95.38
55733;BME280;41637;52.364;9.910;2023-04-01T15:27:00;99413.82;;;9.47;95.57
55733;BME280;41637;52.364;9.910;2023-04-01T15:30:00;99421.73;;;9.36;95.77
55733;BME280;41637;52.364;9.910;2023-04-01T15:41:10;99447.80;;;9.17;97.11
55733;BME280;41637;52.364;9.910;2023-04-01T15:43:47;99450.39;;;9.16;96.91
55733;BME280;41637;52.364;9.910;2023-04-01T15:51:59;99464.27;;;9.08;97.20
55733;BME280;41637;52.364;9.910;2023-04-01T15:54:45;99468.33;;;9.02;97.20
55733;BME280;41637;52.364;9.910;2023-04-01T16:11:23;99509.23;;;8.52;98.25
55733;BME280;41637;52.364;9.910;2023-04-01T16:21:59;99517.89;;;8.32;98.86
55733;BME280;41637;52.364;9.910;2023-04-01T16:24:53;99524.92;;;8.26;99.14
55733;BME280;41637;52.364;9.910;2023-04-01T16:30:34;99532.95;;;8.17;99.11
55733;BME280;41637;52.364;9.910;2023-04-01T16:35:43;99540.09;;;8.09;99.34
55733;BME280;41637;52.364;9.910;2023-04-01T16:38:35;99544.98;;;8.02;99.37
55733;BME280;41637;52.364;9.910;2023-04-01T16:41:26;99553.11;;;7.91;99.77
55733;BME280;41637;52.364;9.910;2023-04-01T16:44:17;99562.66;;;7.84;99.34
55733;BME280;41637;52.364;9.910;2023-04-01T16:46:55;99567.11;;;7.77;99.73
55733;BME280;41637;52.364;9.910;2023-04-01T16:49:53;99573.07;;;7.73;99.71
55733;BME280;41637;52.364;9.910;2023-04-01T16:52:43;99580.05;;;7.71;99.83
55733;BME280;41637;52.364;9.910;2023-04-01T16:55:17;99586.83;;;7.69;99.90
55733;BME280;41637;52.364;9.910;2023-04-01T16:57:52;99592.52;;;7.65;99.85
55733;BME280;41637;52.364;9.910;2023-04-01T17:03:02;99611.24;;;7.54;99.96
55733;BME280;41637;52.364;9.910;2023-04-01T17:06:00;99613.71;;;7.48;99.90
55733;BME280;41637;52.364;9.910;2023-04-01T17:17:34;99635.39;;;7.21;100.00
55733;BME280;41637;52.364;9.910;2023-04-01T17:22:53;99648.65;;;7.12;100.00
55733;BME280;41637;52.364;9.910;2023-04-01T17:31:16;99667.76;;;6.98;99.94
55733;BME280;41637;52.364;9.910;2023-04-01T17:36:16;99677.84;;;6.83;99.96
55733;BME280;41637;52.364;9.910;2023-04-01T17:42:08;99694.92;;;6.72;100.00
55733;BME280;41637;52.364;9.910;2023-04-01T17:44:59;99704.59;;;6.69;100.00
55733;BME280;41637;52.364;9.910;2023-04-01T17:47:34;99711.89;;;6.67;100.00
55733;BME280;41637;52.364;9.910;2023-04-01T17:50:30;99716.82;;;6.63;100.00
55733;BME280;41637;52.364;9.910;2023-04-01T17:53:17;99722.86;;;6.60;100.00
55733;BME280;41637;52.364;9.910;2023-04-01T17:55:55;99734.09;;;6.55;99.98
55733;BME280;41637;52.364;9.910;2023-04-01T17:59:07;99737.02;;;6.49;99.98
55733;BME280;41637;52.364;9.910;2023-04-01T18:02:13;99740.88;;;6.45;100.00
55733;BME280;41637;52.364;9.910;2023-04-01T18:08:19;99755.48;;;6.41;100.00
55733;BME280;41637;52.364;9.910;2023-04-01T18:21:36;99794.93;;;6.32;100.00
55733;BME280;41637;52.364;9.910;2023-04-01T18:24:26;99799.34;;;6.29;100.00
55733;BME280;41637;52.364;9.910;2023-04-01T18:27:03;99803.88;;;6.26;100.00
55733;BME280;41637;52.364;9.910;2023-04-01T18:32:22;99819.02;;;6.22;100.00
55733;BME280;41637;52.364;9.910;2023-04-01T18:35:21;99821.99;;;6.19;100.00
55733;BME280;41637;52.364;9.910;2023-04-01T18:38:00;99830.20;;;6.15;100.00
55733;BME280;41637;52.364;9.910;2023-04-01T18:40:35;99835.48;;;6.11;100.00
55733;BME280;41637;52.364;9.910;2023-04-01T18:43:21;99846.90;;;6.10;100.00
55733;BME280;41637;52.364;9.910;2023-04-01T18:46:11;99849.93;;;6.01;100.00
55733;BME280;41637;52.364;9.910;2023-04-01T18:51:57;99861.27;;;5.94;100.00
55733;BME280;41637;52.364;9.910;2023-04-01T18:57:47;99869.73;;;5.88;100.00
55733;BME280;41637;52.364;9.910;2023-04-01T19:00:25;99873.42;;;5.85;100.00
55733;BME280;41637;52.364;9.910;2023-04-01T19:05:36;99888.89;;;5.80;100.00
55733;BME280;41637;52.364;9.910;2023-04-01T19:08:34;99893.60;;;5.78;100.00
55733;BME280;41637;52.364;9.910;2023-04-01T19:11:33;99902.48;;;5.77;100.00
55733;BME280;41637;52.364;9.910;2023-04-01T19:14:05;99909.31;;;5.78;100.00
55733;BME280;41637;52.364;9.910;2023-04-01T19:17:06;99913.82;;;5.75;100.00
55733;BME280;41637;52.364;9.910;2023-04-01T19:25:34;99937.98;;;5.57;100.00
55733;BME280;41637;52.364;9.910;2023-04-01T19:31:10;99947.63;;;5.52;100.00
55733;BME280;41637;52.364;9.910;2023-04-01T19:36:33;99962.59;;;5.43;100.00
55733;BME280;41637;52.364;9.910;2023-04-01T19:39:37;99966.82;;;5.37;100.00
55733;BME280;41637;52.364;9.910;2023-04-01T19:42:29;99970.21;;;5.30;100.00
55733;BME280;41637;52.364;9.910;2023-04-01T19:50:55;99991.00;;;5.19;100.00
55733;BME280;41637;52.364;9.910;2023-04-01T19:53:34;99996.23;;;5.15;100.00
55733;BME280;41637;52.364;9.910;2023-04-01T19:56:16;100003.50;;;5.15;100.00
55733;BME280;41637;52.364;9.910;2023-04-01T20:01:41;100012.36;;;5.14;100.00
55733;BME280;41637;52.364;9.910;2023-04-01T20:04:36;100025.52;;;5.10;100.00
55733;BME280;41637;52.364;9.910;2023-04-01T20:07:57;100030.98;;;5.03;100.00
55733;BME280;41637;52.364;9.910;2023-04-01T20:10:14;100038.94;;;4.99;100.00
55733;BME280;41637;52.364;9.910;2023-04-01T20:15:37;100050.45;;;4.96;100.00
55733;BME280;41637;52.364;9.910;2023-04-01T20:18:24;100057.70;;;4.94;100.00
55733;BME280;41637;52.364;9.910;2023-04-01T20:20:55;100063.47;;;4.92;100.00
55733;BME280;41637;52.364;9.910;2023-04-01T20:23:40;100069.63;;;4.86;100.00
55733;BME280;41637;52.364;9.910;2023-04-01T20:26:11;100077.27;;;4.78;100.00
55733;BME280;41637;52.364;9.910;2023-04-01T20:51:38;100127.39;;;4.47;100.00
55733;BME280;41637;52.364;9.910;2023-04-01T20:54:39;100131.64;;;4.45;100.00
55733;BME280;41637;52.364;9.910;2023-04-01T20:57:15;100140.20;;;4.43;100.00
55733;BME280;41637;52.364;9.910;2023-04-01T21:07:55;100161.19;;;4.35;100.00
55733;BME280;41637;52.364;9.910;2023-04-01T21:10:43;100166.66;;;4.36;100.00
55733;BME280;41637;52.364;9.910;2023-04-01T21:22:19;100196.00;;;4.40;100.00
55733;BME280;41637;52.364;9.910;2023-04-01T21:30:38;100211.01;;;4.24;100.00
55733;BME280;41637;52.364;9.910;2023-04-01T21:39:21;100234.52;;;4.08;100.00
55733;BME280;41637;52.364;9.910;2023-04-01T22:06:38;100285.33;;;3.89;99.74